Pointe Du Bois, Canada
Current Conditions -  °F | °C
As of 1:00 PM on Sunday 23 Nov 2014 (Local Time) from CYQK Reporting Station
Haze Haze  
Wind Chill: 29°   Ceiling: 500
Heat Index: 34°   Visibility: 3mi
Dew Point: 30°   Wind: 6mph
Humidity: 87%   Direction: 170°S
Pressure: 29.38"   Gusts: NA
Location:  50.3°N, 95.55°W
Report Text: CYQK 231900Z 17005KT 3SM BR OVC005 01/M01 A2938 RMK SF8 CIG VRB 3-7 SLP967
Loading
Personal Weather Stations






























Interactive Weather Map New forecast layout! Learn more

10-Day Weather Forecast

Advertisements
Track Severe Weather on mobile